sensor_id;sensor_type;location;lat;lon;timestamp;P1;durP1;ratioP1;P2;durP2;ratioP2
48875;SDS011;34689;51.644;5.618;2023-04-08T00:01:46;11.43;;;7.03;;
48875;SDS011;34689;51.644;5.618;2023-04-08T00:04:12;13.07;;;7.07;;
48875;SDS011;34689;51.644;5.618;2023-04-08T00:06:38;14.90;;;7.35;;
48875;SDS011;34689;51.644;5.618;2023-04-08T00:09:04;14.63;;;7.10;;
48875;SDS011;34689;51.644;5.618;2023-04-08T00:11:32;12.35;;;7.32;;
48875;SDS011;34689;51.644;5.618;2023-04-08T00:14:02;11.50;;;7.28;;
48875;SDS011;34689;51.644;5.618;2023-04-08T00:16:28;11.88;;;6.93;;
48875;SDS011;34689;51.644;5.618;2023-04-08T00:18:54;14.85;;;7.60;;
48875;SDS011;34689;51.644;5.618;2023-04-08T00:21:20;10.07;;;7.05;;
48875;SDS011;34689;51.644;5.618;2023-04-08T00:23:47;13.48;;;6.95;;
48875;SDS011;34689;51.644;5.618;2023-04-08T00:26:16;13.15;;;8.32;;
48875;SDS011;34689;51.644;5.618;2023-04-08T00:28:41;14.52;;;8.07;;
48875;SDS011;34689;51.644;5.618;2023-04-08T00:31:07;11.20;;;7.53;;
48875;SDS011;34689;51.644;5.618;2023-04-08T00:33:33;19.67;;;8.50;;
48875;SDS011;34689;51.644;5.618;2023-04-08T00:35:59;16.15;;;8.30;;
48875;SDS011;34689;51.644;5.618;2023-04-08T00:38:25;14.77;;;8.05;;
48875;SDS011;34689;51.644;5.618;2023-04-08T00:40:50;11.80;;;8.00;;
48875;SDS011;34689;51.644;5.618;2023-04-08T00:43:16;14.00;;;7.85;;
48875;SDS011;34689;51.644;5.618;2023-04-08T00:45:45;12.38;;;6.60;;
48875;SDS011;34689;51.644;5.618;2023-04-08T00:48:13;14.02;;;7.70;;
48875;SDS011;34689;51.644;5.618;2023-04-08T00:50:39;14.38;;;8.20;;
48875;SDS011;34689;51.644;5.618;2023-04-08T00:53:06;13.77;;;8.18;;
48875;SDS011;34689;51.644;5.618;2023-04-08T00:55:32;12.57;;;7.00;;
48875;SDS011;34689;51.644;5.618;2023-04-08T00:57:59;12.25;;;7.03;;
48875;SDS011;34689;51.644;5.618;2023-04-08T01:00:25;13.70;;;7.07;;
48875;SDS011;34689;51.644;5.618;2023-04-08T01:03:08;11.70;;;7.30;;
48875;SDS011;34689;51.644;5.618;2023-04-08T01:05:50;20.95;;;9.88;;
48875;SDS011;34689;51.644;5.618;2023-04-08T01:08:35;13.55;;;7.45;;
48875;SDS011;34689;51.644;5.618;2023-04-08T01:11:05;15.77;;;8.90;;
48875;SDS011;34689;51.644;5.618;2023-04-08T01:13:35;13.95;;;7.47;;
48875;SDS011;34689;51.644;5.618;2023-04-08T01:16:04;16.50;;;7.53;;
48875;SDS011;34689;51.644;5.618;2023-04-08T01:18:33;13.75;;;7.22;;
48875;SDS011;34689;51.644;5.618;2023-04-08T01:21:00;14.63;;;8.25;;
48875;SDS011;34689;51.644;5.618;2023-04-08T01:23:43;14.10;;;8.60;;
48875;SDS011;34689;51.644;5.618;2023-04-08T01:26:19;11.43;;;6.97;;
48875;SDS011;34689;51.644;5.618;2023-04-08T01:28:48;10.68;;;6.32;;
48875;SDS011;34689;51.644;5.618;2023-04-08T01:31:15;15.07;;;6.95;;
48875;SDS011;34689;51.644;5.618;2023-04-08T01:33:42;12.30;;;6.72;;
48875;SDS011;34689;51.644;5.618;2023-04-08T01:36:10;12.27;;;7.07;;
48875;SDS011;34689;51.644;5.618;2023-04-08T01:38:37;15.25;;;7.32;;
48875;SDS011;34689;51.644;5.618;2023-04-08T01:41:05;11.93;;;7.55;;
48875;SDS011;34689;51.644;5.618;2023-04-08T01:43:38;13.68;;;7.03;;
48875;SDS011;34689;51.644;5.618;2023-04-08T01:46:09;17.90;;;8.13;;
48875;SDS011;34689;51.644;5.618;2023-04-08T01:48:36;11.30;;;6.68;;
48875;SDS011;34689;51.644;5.618;2023-04-08T01:51:03;11.02;;;5.82;;
48875;SDS011;34689;51.644;5.618;2023-04-08T01:53:29;18.52;;;8.07;;
48875;SDS011;34689;51.644;5.618;2023-04-08T01:55:57;13.40;;;7.53;;
48875;SDS011;34689;51.644;5.618;2023-04-08T01:58:30;15.82;;;8.80;;
48875;SDS011;34689;51.644;5.618;2023-04-08T02:01:01;15.15;;;7.50;;
48875;SDS011;34689;51.644;5.618;2023-04-08T02:03:29;9.55;;;5.55;;
48875;SDS011;34689;51.644;5.618;2023-04-08T02:05:56;13.85;;;7.53;;
48875;SDS011;34689;51.644;5.618;2023-04-08T02:08:22;13.07;;;7.22;;
48875;SDS011;34689;51.644;5.618;2023-04-08T02:10:47;15.65;;;6.95;;
48875;SDS011;34689;51.644;5.618;2023-04-08T02:13:15;12.13;;;6.90;;
48875;SDS011;34689;51.644;5.618;2023-04-08T02:15:41;11.23;;;6.63;;
48875;SDS011;34689;51.644;5.618;2023-04-08T02:18:21;14.85;;;7.50;;
48875;SDS011;34689;51.644;5.618;2023-04-08T02:21:05;12.80;;;7.07;;
48875;SDS011;34689;51.644;5.618;2023-04-08T02:23:39;12.90;;;5.97;;
48875;SDS011;34689;51.644;5.618;2023-04-08T02:26:07;17.00;;;8.60;;
48875;SDS011;34689;51.644;5.618;2023-04-08T02:28:38;14.10;;;7.05;;
48875;SDS011;34689;51.644;5.618;2023-04-08T02:31:08;16.95;;;8.88;;
48875;SDS011;34689;51.644;5.618;2023-04-08T02:33:37;17.92;;;8.98;;
48875;SDS011;34689;51.644;5.618;2023-04-08T02:36:04;12.93;;;7.20;;
48875;SDS011;34689;51.644;5.618;2023-04-08T02:38:31;15.60;;;8.57;;
48875;SDS011;34689;51.644;5.618;2023-04-08T02:40:57;14.20;;;7.72;;
48875;SDS011;34689;51.644;5.618;2023-04-08T02:43:23;12.70;;;6.45;;
48875;SDS011;34689;51.644;5.618;2023-04-08T02:45:56;15.48;;;8.15;;
48875;SDS011;34689;51.644;5.618;2023-04-08T02:48:32;10.90;;;6.13;;
48875;SDS011;34689;51.644;5.618;2023-04-08T02:50:58;13.35;;;7.65;;
48875;SDS011;34689;51.644;5.618;2023-04-08T02:53:24;15.75;;;7.78;;
48875;SDS011;34689;51.644;5.618;2023-04-08T02:55:50;15.50;;;7.53;;
48875;SDS011;34689;51.644;5.618;2023-04-08T02:58:18;13.70;;;6.97;;
48875;SDS011;34689;51.644;5.618;2023-04-08T03:00:43;17.33;;;8.55;;
48875;SDS011;34689;51.644;5.618;2023-04-08T03:03:10;18.70;;;9.65;;
48875;SDS011;34689;51.644;5.618;2023-04-08T03:05:35;16.75;;;9.05;;
48875;SDS011;34689;51.644;5.618;2023-04-08T03:08:01;19.65;;;8.93;;
48875;SDS011;34689;51.644;5.618;2023-04-08T03:10:27;16.42;;;8.65;;
48875;SDS011;34689;51.644;5.618;2023-04-08T03:12:53;17.58;;;9.00;;
48875;SDS011;34689;51.644;5.618;2023-04-08T03:15:19;18.42;;;8.77;;
48875;SDS011;34689;51.644;5.618;2023-04-08T03:17:44;14.88;;;8.25;;
48875;SDS011;34689;51.644;5.618;2023-04-08T03:20:10;14.35;;;7.70;;
48875;SDS011;34689;51.644;5.618;2023-04-08T03:22:36;17.38;;;8.98;;
48875;SDS011;34689;51.644;5.618;2023-04-08T03:25:02;12.32;;;6.80;;
48875;SDS011;34689;51.644;5.618;2023-04-08T03:27:28;18.38;;;9.40;;
48875;SDS011;34689;51.644;5.618;2023-04-08T03:29:54;19.50;;;9.38;;
48875;SDS011;34689;51.644;5.618;2023-04-08T03:32:21;20.05;;;10.05;;
48875;SDS011;34689;51.644;5.618;2023-04-08T03:34:47;19.08;;;8.90;;
48875;SDS011;34689;51.644;5.618;2023-04-08T03:37:15;17.33;;;8.25;;
48875;SDS011;34689;51.644;5.618;2023-04-08T03:39:41;19.02;;;8.65;;
48875;SDS011;34689;51.644;5.618;2023-04-08T03:42:07;18.20;;;8.88;;
48875;SDS011;34689;51.644;5.618;2023-04-08T03:44:35;19.65;;;8.98;;
48875;SDS011;34689;51.644;5.618;2023-04-08T03:47:00;18.42;;;7.82;;
48875;SDS011;34689;51.644;5.618;2023-04-08T03:49:26;16.23;;;6.78;;
48875;SDS011;34689;51.644;5.618;2023-04-08T03:51:52;16.38;;;8.55;;
48875;SDS011;34689;51.644;5.618;2023-04-08T03:54:18;18.10;;;8.85;;
48875;SDS011;34689;51.644;5.618;2023-04-08T03:56:43;16.33;;;8.27;;
48875;SDS011;34689;51.644;5.618;2023-04-08T03:59:09;19.67;;;9.00;;
48875;SDS011;34689;51.644;5.618;2023-04-08T04:01:35;18.80;;;8.13;;
48875;SDS011;34689;51.644;5.618;2023-04-08T04:04:00;14.27;;;7.22;;
48875;SDS011;34689;51.644;5.618;2023-04-08T04:06:26;15.20;;;7.03;;
48875;SDS011;34689;51.644;5.618;2023-04-08T04:08:52;16.50;;;7.50;;
48875;SDS011;34689;51.644;5.618;2023-04-08T04:11:21;20.25;;;9.73;;
48875;SDS011;34689;51.644;5.618;2023-04-08T04:13:47;16.35;;;8.10;;
48875;SDS011;34689;51.644;5.618;2023-04-08T04:16:13;15.32;;;8.05;;
48875;SDS011;34689;51.644;5.618;2023-04-08T04:18:39;19.08;;;9.00;;
48875;SDS011;34689;51.644;5.618;2023-04-08T04:21:06;16.95;;;8.88;;
48875;SDS011;34689;51.644;5.618;2023-04-08T04:23:32;19.88;;;9.40;;
48875;SDS011;34689;51.644;5.618;2023-04-08T04:25:58;19.63;;;9.60;;
48875;SDS011;34689;51.644;5.618;2023-04-08T04:28:24;13.68;;;7.80;;
48875;SDS011;34689;51.644;5.618;2023-04-08T04:30:50;12.32;;;6.63;;
48875;SDS011;34689;51.644;5.618;2023-04-08T04:33:15;12.90;;;7.10;;
48875;SDS011;34689;51.644;5.618;2023-04-08T04:35:41;13.27;;;6.75;;
48875;SDS011;34689;51.644;5.618;2023-04-08T04:38:07;13.70;;;6.60;;
48875;SDS011;34689;51.644;5.618;2023-04-08T04:40:37;14.98;;;7.35;;
48875;SDS011;34689;51.644;5.618;2023-04-08T04:43:03;13.05;;;6.65;;
48875;SDS011;34689;51.644;5.618;2023-04-08T04:45:29;14.63;;;7.57;;
48875;SDS011;34689;51.644;5.618;2023-04-08T04:47:58;13.10;;;6.70;;
48875;SDS011;34689;51.644;5.618;2023-04-08T04:50:23;15.85;;;7.80;;
48875;SDS011;34689;51.644;5.618;2023-04-08T04:52:49;13.13;;;7.20;;
48875;SDS011;34689;51.644;5.618;2023-04-08T04:55:15;13.60;;;7.45;;
48875;SDS011;34689;51.644;5.618;2023-04-08T04:57:41;12.50;;;6.72;;
48875;SDS011;34689;51.644;5.618;2023-04-08T05:00:08;9.27;;;5.38;;
48875;SDS011;34689;51.644;5.618;2023-04-08T05:02:34;16.08;;;7.88;;
48875;SDS011;34689;51.644;5.618;2023-04-08T05:05:00;14.25;;;7.35;;
48875;SDS011;34689;51.644;5.618;2023-04-08T05:07:26;14.75;;;7.38;;
48875;SDS011;34689;51.644;5.618;2023-04-08T05:09:52;12.40;;;7.28;;
48875;SDS011;34689;51.644;5.618;2023-04-08T05:12:18;10.68;;;6.18;;
48875;SDS011;34689;51.644;5.618;2023-04-08T05:14:46;13.15;;;6.22;;
48875;SDS011;34689;51.644;5.618;2023-04-08T05:17:14;11.43;;;5.43;;
48875;SDS011;34689;51.644;5.618;2023-04-08T05:19:40;14.60;;;6.72;;
48875;SDS011;34689;51.644;5.618;2023-04-08T05:22:06;14.23;;;7.53;;
48875;SDS011;34689;51.644;5.618;2023-04-08T05:24:31;15.18;;;8.13;;
48875;SDS011;34689;51.644;5.618;2023-04-08T05:26:57;14.70;;;7.70;;
48875;SDS011;34689;51.644;5.618;2023-04-08T05:29:23;12.85;;;6.80;;
48875;SDS011;34689;51.644;5.618;2023-04-08T05:31:48;13.70;;;7.10;;
48875;SDS011;34689;51.644;5.618;2023-04-08T05:34:15;12.02;;;6.68;;
48875;SDS011;34689;51.644;5.618;2023-04-08T05:36:46;11.50;;;6.68;;
48875;SDS011;34689;51.644;5.618;2023-04-08T05:39:16;10.18;;;5.80;;
48875;SDS011;34689;51.644;5.618;2023-04-08T05:41:44;11.45;;;5.85;;
48875;SDS011;34689;51.644;5.618;2023-04-08T05:44:10;12.95;;;6.95;;
48875;SDS011;34689;51.644;5.618;2023-04-08T05:46:37;13.10;;;7.60;;
48875;SDS011;34689;51.644;5.618;2023-04-08T05:49:03;14.15;;;7.53;;
48875;SDS011;34689;51.644;5.618;2023-04-08T05:51:29;13.48;;;7.13;;
48875;SDS011;34689;51.644;5.618;2023-04-08T05:53:55;12.27;;;6.55;;
48875;SDS011;34689;51.644;5.618;2023-04-08T05:56:21;11.90;;;6.75;;
48875;SDS011;34689;51.644;5.618;2023-04-08T05:58:46;13.95;;;7.10;;
48875;SDS011;34689;51.644;5.618;2023-04-08T06:01:12;14.80;;;8.90;;
48875;SDS011;34689;51.644;5.618;2023-04-08T06:03:38;13.70;;;7.82;;
48875;SDS011;34689;51.644;5.618;2023-04-08T06:06:08;13.20;;;6.95;;
48875;SDS011;34689;51.644;5.618;2023-04-08T06:08:35;14.80;;;8.23;;
48875;SDS011;34689;51.644;5.618;2023-04-08T06:11:01;17.50;;;9.25;;
48875;SDS011;34689;51.644;5.618;2023-04-08T06:13:29;16.45;;;8.30;;
48875;SDS011;34689;51.644;5.618;2023-04-08T06:15:55;14.75;;;7.68;;
48875;SDS011;34689;51.644;5.618;2023-04-08T06:18:21;17.88;;;10.07;;
48875;SDS011;34689;51.644;5.618;2023-04-08T06:20:46;14.55;;;8.32;;
48875;SDS011;34689;51.644;5.618;2023-04-08T06:23:12;13.10;;;6.82;;
48875;SDS011;34689;51.644;5.618;2023-04-08T06:25:38;13.68;;;7.82;;
48875;SDS011;34689;51.644;5.618;2023-04-08T06:28:04;16.42;;;8.32;;
48875;SDS011;34689;51.644;5.618;2023-04-08T06:30:29;16.95;;;8.00;;
48875;SDS011;34689;51.644;5.618;2023-04-08T06:32:55;15.75;;;8.43;;
48875;SDS011;34689;51.644;5.618;2023-04-08T06:35:21;15.50;;;7.82;;
48875;SDS011;34689;51.644;5.618;2023-04-08T06:37:47;14.95;;;7.70;;
48875;SDS011;34689;51.644;5.618;2023-04-08T06:40:12;14.93;;;9.13;;
48875;SDS011;34689;51.644;5.618;2023-04-08T06:42:38;12.25;;;6.25;;
48875;SDS011;34689;51.644;5.618;2023-04-08T06:45:07;18.48;;;8.50;;
48875;SDS011;34689;51.644;5.618;2023-04-08T06:47:33;15.90;;;7.47;;
48875;SDS011;34689;51.644;5.618;2023-04-08T06:49:58;16.40;;;7.55;;
48875;SDS011;34689;51.644;5.618;2023-04-08T06:52:24;18.10;;;9.18;;
48875;SDS011;34689;51.644;5.618;2023-04-08T06:54:50;16.70;;;8.48;;
48875;SDS011;34689;51.644;5.618;2023-04-08T06:57:16;12.82;;;6.25;;
48875;SDS011;34689;51.644;5.618;2023-04-08T06:59:41;15.30;;;7.60;;
48875;SDS011;34689;51.644;5.618;2023-04-08T07:02:07;18.33;;;8.77;;
48875;SDS011;34689;51.644;5.618;2023-04-08T07:04:33;17.40;;;9.00;;
48875;SDS011;34689;51.644;5.618;2023-04-08T07:06:59;15.20;;;7.85;;
48875;SDS011;34689;51.644;5.618;2023-04-08T07:09:27;13.05;;;7.15;;
48875;SDS011;34689;51.644;5.618;2023-04-08T07:11:55;11.82;;;6.40;;
48875;SDS011;34689;51.644;5.618;2023-04-08T07:14:21;13.10;;;7.10;;
48875;SDS011;34689;51.644;5.618;2023-04-08T07:16:49;11.45;;;6.03;;
48875;SDS011;34689;51.644;5.618;2023-04-08T07:19:15;12.50;;;6.85;;
48875;SDS011;34689;51.644;5.618;2023-04-08T07:21:41;9.73;;;5.45;;
48875;SDS011;34689;51.644;5.618;2023-04-08T07:24:06;13.25;;;6.82;;
48875;SDS011;34689;51.644;5.618;2023-04-08T07:26:32;11.98;;;6.50;;
48875;SDS011;34689;51.644;5.618;2023-04-08T07:29:00;12.88;;;6.10;;
48875;SDS011;34689;51.644;5.618;2023-04-08T07:31:26;9.25;;;5.22;;
48875;SDS011;34689;51.644;5.618;2023-04-08T07:33:51;14.73;;;7.55;;
48875;SDS011;34689;51.644;5.618;2023-04-08T07:36:17;8.93;;;4.88;;
48875;SDS011;34689;51.644;5.618;2023-04-08T07:38:45;10.93;;;5.43;;
48875;SDS011;34689;51.644;5.618;2023-04-08T07:41:11;11.75;;;6.30;;
48875;SDS011;34689;51.644;5.618;2023-04-08T07:43:36;10.48;;;6.00;;
48875;SDS011;34689;51.644;5.618;2023-04-08T07:46:03;11.48;;;6.30;;
48875;SDS011;34689;51.644;5.618;2023-04-08T07:48:30;10.13;;;6.07;;
48875;SDS011;34689;51.644;5.618;2023-04-08T07:50:56;9.40;;;5.82;;
48875;SDS011;34689;51.644;5.618;2023-04-08T07:53:22;11.52;;;7.07;;
48875;SDS011;34689;51.644;5.618;2023-04-08T07:55:50;12.02;;;6.47;;
48875;SDS011;34689;51.644;5.618;2023-04-08T07:58:16;12.68;;;6.68;;
48875;SDS011;34689;51.644;5.618;2023-04-08T08:00:42;10.65;;;5.47;;
48875;SDS011;34689;51.644;5.618;2023-04-08T08:03:07;12.20;;;6.50;;
48875;SDS011;34689;51.644;5.618;2023-04-08T08:05:34;9.73;;;6.07;;
48875;SDS011;34689;51.644;5.618;2023-04-08T08:08:01;9.50;;;4.97;;
48875;SDS011;34689;51.644;5.618;2023-04-08T08:10:27;11.85;;;6.55;;
48875;SDS011;34689;51.644;5.618;2023-04-08T08:12:53;9.02;;;5.55;;
48875;SDS011;34689;51.644;5.618;2023-04-08T08:15:20;8.88;;;5.05;;
48875;SDS011;34689;51.644;5.618;2023-04-08T08:17:46;8.23;;;4.82;;
48875;SDS011;34689;51.644;5.618;2023-04-08T08:20:12;9.70;;;5.72;;
48875;SDS011;34689;51.644;5.618;2023-04-08T08:22:37;6.88;;;4.43;;
48875;SDS011;34689;51.644;5.618;2023-04-08T08:25:03;8.25;;;5.13;;
48875;SDS011;34689;51.644;5.618;2023-04-08T08:27:30;7.72;;;4.93;;
48875;SDS011;34689;51.644;5.618;2023-04-08T08:29:58;6.90;;;4.75;;
48875;SDS011;34689;51.644;5.618;2023-04-08T08:32:24;9.90;;;5.15;;
48875;SDS011;34689;51.644;5.618;2023-04-08T08:34:49;8.02;;;4.95;;
48875;SDS011;34689;51.644;5.618;2023-04-08T08:37:15;7.22;;;4.95;;
48875;SDS011;34689;51.644;5.618;2023-04-08T08:39:41;13.10;;;7.63;;
48875;SDS011;34689;51.644;5.618;2023-04-08T08:42:06;9.98;;;6.07;;
48875;SDS011;34689;51.644;5.618;2023-04-08T08:44:46;7.25;;;4.03;;
48875;SDS011;34689;51.644;5.618;2023-04-08T08:47:12;6.85;;;4.22;;
48875;SDS011;34689;51.644;5.618;2023-04-08T08:49:38;8.02;;;5.32;;
48875;SDS011;34689;51.644;5.618;2023-04-08T08:52:04;7.18;;;4.85;;
48875;SDS011;34689;51.644;5.618;2023-04-08T08:54:31;9.00;;;5.00;;
48875;SDS011;34689;51.644;5.618;2023-04-08T08:56:56;9.07;;;4.70;;
48875;SDS011;34689;51.644;5.618;2023-04-08T08:59:22;6.32;;;3.92;;
48875;SDS011;34689;51.644;5.618;2023-04-08T09:01:50;6.50;;;4.10;;
48875;SDS011;34689;51.644;5.618;2023-04-08T09:04:17;8.23;;;5.68;;
48875;SDS011;34689;51.644;5.618;2023-04-08T09:06:44;8.30;;;5.75;;
48875;SDS011;34689;51.644;5.618;2023-04-08T09:09:15;9.45;;;6.03;;
48875;SDS011;34689;51.644;5.618;2023-04-08T09:11:44;7.35;;;4.78;;
48875;SDS011;34689;51.644;5.618;2023-04-08T09:14:20;8.45;;;5.13;;
48875;SDS011;34689;51.644;5.618;2023-04-08T09:16:47;7.90;;;5.35;;
48875;SDS011;34689;51.644;5.618;2023-04-08T09:19:13;9.90;;;6.05;;
48875;SDS011;34689;51.644;5.618;2023-04-08T09:21:39;9.18;;;5.82;;
48875;SDS011;34689;51.644;5.618;2023-04-08T09:24:06;11.95;;;6.63;;
48875;SDS011;34689;51.644;5.618;2023-04-08T09:26:33;8.80;;;5.75;;
48875;SDS011;34689;51.644;5.618;2023-04-08T09:31:28;8.45;;;5.35;;
48875;SDS011;34689;51.644;5.618;2023-04-08T09:33:56;6.40;;;3.83;;
48875;SDS011;34689;51.644;5.618;2023-04-08T09:36:32;6.35;;;4.40;;
48875;SDS011;34689;51.644;5.618;2023-04-08T09:38:57;11.70;;;6.95;;
48875;SDS011;34689;51.644;5.618;2023-04-08T09:41:23;9.52;;;6.47;;
48875;SDS011;34689;51.644;5.618;2023-04-08T09:43:53;5.60;;;4.20;;
48875;SDS011;34689;51.644;5.618;2023-04-08T09:46:28;7.43;;;4.60;;
48875;SDS011;34689;51.644;5.618;2023-04-08T09:57:39;7.65;;;4.63;;
48875;SDS011;34689;51.644;5.618;2023-04-08T10:00:15;8.90;;;6.20;;
48875;SDS011;34689;51.644;5.618;2023-04-08T10:05:30;15.18;;;8.65;;
48875;SDS011;34689;51.644;5.618;2023-04-08T10:07:57;14.45;;;10.05;;
48875;SDS011;34689;51.644;5.618;2023-04-08T10:10:23;20.40;;;12.27;;
48875;SDS011;34689;51.644;5.618;2023-04-08T10:12:50;17.27;;;11.70;;
48875;SDS011;34689;51.644;5.618;2023-04-08T10:15:32;15.10;;;11.15;;
48875;SDS011;34689;51.644;5.618;2023-04-08T10:23:00;15.50;;;10.73;;
48875;SDS011;34689;51.644;5.618;2023-04-08T10:25:37;13.43;;;8.77;;
48875;SDS011;34689;51.644;5.618;2023-04-08T10:30:46;14.43;;;9.48;;
48875;SDS011;34689;51.644;5.618;2023-04-08T10:36:10;13.13;;;9.18;;
48875;SDS011;34689;51.644;5.618;2023-04-08T10:38:37;10.18;;;7.43;;
48875;SDS011;34689;51.644;5.618;2023-04-08T10:41:06;11.73;;;7.28;;
48875;SDS011;34689;51.644;5.618;2023-04-08T10:43:32;14.10;;;9.95;;
48875;SDS011;34689;51.644;5.618;2023-04-08T10:45:59;16.08;;;9.75;;
48875;SDS011;34689;51.644;5.618;2023-04-08T10:48:25;13.77;;;9.75;;
48875;SDS011;34689;51.644;5.618;2023-04-08T10:51:02;13.90;;;8.82;;
48875;SDS011;34689;51.644;5.618;2023-04-08T10:56:04;13.40;;;9.43;;
48875;SDS011;34689;51.644;5.618;2023-04-08T10:58:35;12.82;;;9.05;;
48875;SDS011;34689;51.644;5.618;2023-04-08T11:01:14;12.80;;;9.27;;
48875;SDS011;34689;51.644;5.618;2023-04-08T11:03:42;16.27;;;10.85;;
48875;SDS011;34689;51.644;5.618;2023-04-08T11:06:08;13.48;;;9.50;;
48875;SDS011;34689;51.644;5.618;2023-04-08T11:08:36;13.10;;;8.57;;
48875;SDS011;34689;51.644;5.618;2023-04-08T11:11:02;12.18;;;8.70;;
48875;SDS011;34689;51.644;5.618;2023-04-08T11:13:33;14.68;;;10.85;;
48875;SDS011;34689;51.644;5.618;2023-04-08T11:16:00;15.98;;;10.93;;
48875;SDS011;34689;51.644;5.618;2023-04-08T11:18:29;16.23;;;10.40;;
48875;SDS011;34689;51.644;5.618;2023-04-08T11:20:55;14.90;;;9.57;;
48875;SDS011;34689;51.644;5.618;2023-04-08T11:23:23;14.57;;;10.48;;
48875;SDS011;34689;51.644;5.618;2023-04-08T11:25:50;12.95;;;9.27;;
48875;SDS011;34689;51.644;5.618;2023-04-08T11:28:16;15.10;;;11.90;;
48875;SDS011;34689;51.644;5.618;2023-04-08T11:30:45;13.73;;;10.02;;
48875;SDS011;34689;51.644;5.618;2023-04-08T11:33:12;13.00;;;9.48;;
48875;SDS011;34689;51.644;5.618;2023-04-08T11:35:39;13.90;;;10.35;;
48875;SDS011;34689;51.644;5.618;2023-04-08T11:38:06;15.02;;;10.18;;
48875;SDS011;34689;51.644;5.618;2023-04-08T11:40:33;14.00;;;10.20;;
48875;SDS011;34689;51.644;5.618;2023-04-08T11:42:58;12.60;;;9.57;;
48875;SDS011;34689;51.644;5.618;2023-04-08T11:45:36;12.80;;;9.48;;
48875;SDS011;34689;51.644;5.618;2023-04-08T11:48:12;10.15;;;6.55;;
48875;SDS011;34689;51.644;5.618;2023-04-08T11:50:40;12.80;;;9.13;;
48875;SDS011;34689;51.644;5.618;2023-04-08T11:55:46;11.50;;;8.13;;
48875;SDS011;34689;51.644;5.618;2023-04-08T11:58:12;13.52;;;9.18;;
48875;SDS011;34689;51.644;5.618;2023-04-08T12:00:38;11.43;;;8.38;;
48875;SDS011;34689;51.644;5.618;2023-04-08T12:03:07;10.68;;;7.28;;
48875;SDS011;34689;51.644;5.618;2023-04-08T12:05:34;11.00;;;7.35;;
48875;SDS011;34689;51.644;5.618;2023-04-08T12:08:00;8.93;;;7.00;;
48875;SDS011;34689;51.644;5.618;2023-04-08T12:10:27;9.55;;;6.85;;
48875;SDS011;34689;51.644;5.618;2023-04-08T12:12:55;10.20;;;7.53;;
48875;SDS011;34689;51.644;5.618;2023-04-08T12:15:21;8.63;;;6.05;;
48875;SDS011;34689;51.644;5.618;2023-04-08T12:17:46;9.05;;;6.45;;
48875;SDS011;34689;51.644;5.618;2023-04-08T12:20:12;10.88;;;8.15;;
48875;SDS011;34689;51.644;5.618;2023-04-08T12:22:39;9.07;;;6.32;;
48875;SDS011;34689;51.644;5.618;2023-04-08T12:25:05;7.82;;;6.25;;
48875;SDS011;34689;51.644;5.618;2023-04-08T12:27:31;7.13;;;5.65;;
48875;SDS011;34689;51.644;5.618;2023-04-08T12:29:59;6.03;;;4.50;;
48875;SDS011;34689;51.644;5.618;2023-04-08T12:32:26;7.82;;;5.47;;
48875;SDS011;34689;51.644;5.618;2023-04-08T12:34:52;7.72;;;5.55;;
48875;SDS011;34689;51.644;5.618;2023-04-08T12:37:18;7.45;;;5.45;;
48875;SDS011;34689;51.644;5.618;2023-04-08T12:39:46;7.43;;;5.32;;
48875;SDS011;34689;51.644;5.618;2023-04-08T12:42:12;6.68;;;5.03;;
48875;SDS011;34689;51.644;5.618;2023-04-08T12:44:41;7.13;;;5.35;;
48875;SDS011;34689;51.644;5.618;2023-04-08T12:47:07;6.30;;;4.78;;
48875;SDS011;34689;51.644;5.618;2023-04-08T12:49:32;7.38;;;4.57;;
48875;SDS011;34689;51.644;5.618;2023-04-08T12:51:58;5.65;;;4.30;;
48875;SDS011;34689;51.644;5.618;2023-04-08T12:54:24;6.18;;;4.38;;
48875;SDS011;34689;51.644;5.618;2023-04-08T12:56:49;6.00;;;4.32;;
48875;SDS011;34689;51.644;5.618;2023-04-08T12:59:15;5.78;;;4.47;;
48875;SDS011;34689;51.644;5.618;2023-04-08T13:01:41;7.82;;;4.65;;
48875;SDS011;34689;51.644;5.618;2023-04-08T13:04:07;6.32;;;4.40;;
48875;SDS011;34689;51.644;5.618;2023-04-08T13:06:33;4.85;;;3.58;;
48875;SDS011;34689;51.644;5.618;2023-04-08T13:08:59;7.20;;;4.72;;
48875;SDS011;34689;51.644;5.618;2023-04-08T13:11:25;7.07;;;4.55;;
48875;SDS011;34689;51.644;5.618;2023-04-08T13:13:51;5.97;;;4.25;;
48875;SDS011;34689;51.644;5.618;2023-04-08T13:16:17;6.35;;;4.38;;
48875;SDS011;34689;51.644;5.618;2023-04-08T13:18:43;4.03;;;3.28;;
48875;SDS011;34689;51.644;5.618;2023-04-08T13:21:09;6.50;;;4.18;;
48875;SDS011;34689;51.644;5.618;2023-04-08T13:23:35;6.78;;;4.55;;
48875;SDS011;34689;51.644;5.618;2023-04-08T13:26:01;6.90;;;4.35;;
48875;SDS011;34689;51.644;5.618;2023-04-08T13:28:26;4.88;;;3.88;;
48875;SDS011;34689;51.644;5.618;2023-04-08T13:30:52;6.97;;;4.68;;
48875;SDS011;34689;51.644;5.618;2023-04-08T13:33:20;8.30;;;5.10;;
48875;SDS011;34689;51.644;5.618;2023-04-08T13:35:48;7.43;;;5.05;;
48875;SDS011;34689;51.644;5.618;2023-04-08T13:38:14;5.57;;;4.05;;
48875;SDS011;34689;51.644;5.618;2023-04-08T13:40:39;5.93;;;4.60;;
48875;SDS011;34689;51.644;5.618;2023-04-08T13:43:05;6.22;;;4.38;;
48875;SDS011;34689;51.644;5.618;2023-04-08T13:45:32;5.50;;;4.03;;
48875;SDS011;34689;51.644;5.618;2023-04-08T13:47:57;5.60;;;3.95;;
48875;SDS011;34689;51.644;5.618;2023-04-08T13:50:23;6.28;;;4.25;;
48875;SDS011;34689;51.644;5.618;2023-04-08T13:52:49;7.50;;;4.78;;
48875;SDS011;34689;51.644;5.618;2023-04-08T13:55:15;8.18;;;5.07;;
48875;SDS011;34689;51.644;5.618;2023-04-08T13:57:41;6.40;;;4.55;;
48875;SDS011;34689;51.644;5.618;2023-04-08T14:00:07;7.25;;;5.25;;
48875;SDS011;34689;51.644;5.618;2023-04-08T14:02:34;8.80;;;6.45;;
48875;SDS011;34689;51.644;5.618;2023-04-08T14:04:59;7.13;;;5.13;;
48875;SDS011;34689;51.644;5.618;2023-04-08T14:07:25;8.75;;;5.20;;
48875;SDS011;34689;51.644;5.618;2023-04-08T14:09:51;8.32;;;4.97;;
48875;SDS011;34689;51.644;5.618;2023-04-08T14:12:16;6.70;;;4.60;;
48875;SDS011;34689;51.644;5.618;2023-04-08T14:14:42;7.32;;;5.30;;
48875;SDS011;34689;51.644;5.618;2023-04-08T14:17:08;6.28;;;5.10;;
48875;SDS011;34689;51.644;5.618;2023-04-08T14:19:33;6.63;;;5.28;;
48875;SDS011;34689;51.644;5.618;2023-04-08T14:21:59;8.48;;;5.45;;
48875;SDS011;34689;51.644;5.618;2023-04-08T14:24:25;7.40;;;5.30;;
48875;SDS011;34689;51.644;5.618;2023-04-08T14:26:51;5.82;;;4.63;;
48875;SDS011;34689;51.644;5.618;2023-04-08T14:29:17;7.47;;;5.05;;
48875;SDS011;34689;51.644;5.618;2023-04-08T14:31:45;5.72;;;3.83;;
48875;SDS011;34689;51.644;5.618;2023-04-08T14:34:10;5.47;;;4.15;;
48875;SDS011;34689;51.644;5.618;2023-04-08T14:36:36;5.63;;;3.97;;
48875;SDS011;34689;51.644;5.618;2023-04-08T14:39:02;6.53;;;4.68;;
48875;SDS011;34689;51.644;5.618;2023-04-08T14:41:28;6.03;;;4.10;;
48875;SDS011;34689;51.644;5.618;2023-04-08T14:43:53;8.15;;;4.13;;
48875;SDS011;34689;51.644;5.618;2023-04-08T14:46:19;5.55;;;3.65;;
48875;SDS011;34689;51.644;5.618;2023-04-08T14:48:45;5.22;;;3.60;;
48875;SDS011;34689;51.644;5.618;2023-04-08T14:51:11;4.90;;;3.15;;
48875;SDS011;34689;51.644;5.618;2023-04-08T14:53:37;5.30;;;3.20;;
48875;SDS011;34689;51.644;5.618;2023-04-08T14:56:03;4.20;;;3.13;;
48875;SDS011;34689;51.644;5.618;2023-04-08T14:58:30;5.32;;;3.53;;
48875;SDS011;34689;51.644;5.618;2023-04-08T15:00:56;5.05;;;3.17;;
48875;SDS011;34689;51.644;5.618;2023-04-08T15:03:21;4.00;;;3.03;;
48875;SDS011;34689;51.644;5.618;2023-04-08T15:05:47;3.80;;;3.20;;
48875;SDS011;34689;51.644;5.618;2023-04-08T15:08:13;3.20;;;2.47;;